.
WxDataArchive / Data Records for 2007-03-13
2007-03-12 March 2007 2007-03-14

Data Records for Tuesday, 13 March 2007

Time	Temp	Chill	HIndex	Humid	Dewpt	 Wind 	HiWind	WindDir	Rain 	Barom 
-----	----	-----	------	-----	-----	------	------	-------	-----	----- 
00:00	47.4	47.4	47.4	52	30.7	0	2	225	0.00	30.005 
00:05	47.6	47.6	47.6	51	30.4	0	2	225	0.00	30.002 
00:10	47.7	47.7	47.7	51	30.5	0	2	225	0.00	30.002 
00:15	47.7	47.7	47.7	51	30.5	0	2	225	0.00	30.001 
00:20	47.7	47.7	47.7	51	30.5	0	1	225	0.00	30.003 
00:25	47.7	47.7	47.7	50	30.0	1	3	225	0.00	30.003 
00:30	47.9	47.9	47.9	50	30.2	1	3	248	0.00	30.002 
00:35	48.2	48.2	48.2	50	30.4	1	3	248	0.00	30.000 
00:40	48.0	48.0	48.0	50	30.3	0	3	248	0.00	30.000 
00:45	48.0	48.0	48.0	50	30.3	1	2	248	0.00	30.000 
00:50	47.9	47.9	47.9	50	30.2	0	2	248	0.00	29.998 
00:55	48.0	48.0	48.0	50	30.3	1	4	248	0.00	29.999 
01:00	48.2	48.2	48.2	50	30.4	1	3	248	0.00	29.998 
01:05	48.2	48.2	48.2	50	30.4	1	3	248	0.00	29.995 
01:10	48.2	48.2	48.2	50	30.4	1	2	248	0.00	29.991 
01:15	48.0	48.0	48.0	51	30.7	1	3	248	0.00	29.989 
01:20	48.0	48.0	48.0	51	30.7	1	3	248	0.00	29.990 
01:25	48.2	48.2	48.2	50	30.4	2	3	248	0.00	29.989 
01:30	48.3	48.3	48.3	50	30.5	1	3	248	0.00	29.988 
01:35	48.3	48.3	48.3	50	30.5	1	3	248	0.00	29.988 
01:40	48.3	48.3	48.3	51	31.0	1	3	248	0.00	29.985 
01:45	48.2	48.2	48.2	51	30.9	1	3	248	0.00	29.983 
01:50	48.0	48.0	48.0	52	31.2	1	4	248	0.00	29.983 
01:55	47.9	47.9	47.9	52	31.1	1	4	248	0.00	29.984 
02:00	47.9	47.9	47.9	52	31.1	1	2	248	0.00	29.984 
02:05	47.7	47.7	47.7	53	31.4	0	2	225	0.00	29.983 
02:10	47.7	47.7	47.7	53	31.4	1	3	248	0.00	29.982 
02:15	47.7	47.7	47.7	53	31.4	1	3	248	0.00	29.981 
02:20	47.7	47.7	47.7	54	31.9	1	3	248	0.00	29.981 
02:25	47.6	47.6	47.6	54	31.8	0	2	225	0.00	29.980 
02:30	47.4	47.4	47.4	54	31.6	0	2	225	0.00	29.980 
02:35	47.3	47.3	47.3	55	32.0	0	2	225	0.00	29.979 
02:40	47.1	47.1	47.1	55	31.8	0	1	225	0.00	29.977 
02:45	47.0	47.0	47.0	56	32.1	0	2	225	0.00	29.977 
02:50	47.1	47.1	47.1	56	32.2	0	2	225	0.00	29.977 
02:55	47.1	47.1	47.1	56	32.2	1	3	225	0.00	29.978 
03:00	47.4	47.4	47.4	56	32.5	1	3	248	0.00	29.977 
03:05	47.6	47.6	47.6	56	32.7	1	4	248	0.00	29.972 
03:10	47.9	47.9	47.9	56	33.0	2	4	248	0.00	29.970 
03:15	47.9	47.9	47.9	56	33.0	1	4	248	0.00	29.968 
03:20	47.9	47.9	47.9	57	33.4	1	4	225	0.00	29.966 
03:25	47.7	47.7	47.7	57	33.2	1	3	248	0.00	29.967 
03:30	47.9	47.9	47.9	57	33.4	2	6	248	0.00	29.964 
03:35	48.0	48.0	48.0	57	33.5	2	6	248	0.00	29.967 
03:40	48.0	48.0	48.0	57	33.5	2	5	248	0.00	29.965 
03:45	48.0	48.0	48.0	58	33.9	2	4	248	0.00	29.964 
03:50	47.9	47.9	47.9	58	33.8	2	4	248	0.00	29.964 
03:55	47.9	47.9	47.9	58	33.8	2	4	248	0.00	29.965 
04:00	47.9	47.9	47.9	59	34.3	2	4	248	0.00	29.964 
04:05	47.7	47.7	47.7	59	34.1	2	6	248	0.00	29.964 
04:10	47.7	47.7	47.7	59	34.1	2	5	248	0.00	29.963 
04:15	47.6	47.6	47.6	60	34.4	1	4	248	0.00	29.962 
04:20	47.6	47.6	47.6	60	34.4	2	4	248	0.00	29.962 
04:25	47.6	47.6	47.6	61	34.8	2	5	248	0.00	29.962 
04:30	47.6	47.6	47.6	61	34.8	2	4	248	0.00	29.962 
04:35	47.6	47.6	47.6	61	34.8	1	4	248	0.00	29.961 
04:40	47.4	47.4	47.4	62	35.0	1	5	248	0.00	29.962 
04:45	47.4	47.4	47.4	62	35.0	1	4	248	0.00	29.962 
04:50	47.4	47.4	47.4	62	35.0	1	3	248	0.00	29.965 
04:55	47.4	47.4	47.4	62	35.0	1	4	248	0.00	29.965 
05:00	47.4	47.4	47.4	62	35.0	1	3	248	0.00	29.963 
05:05	47.4	47.4	47.4	63	35.4	2	6	248	0.00	29.963 
05:10	47.4	47.4	47.4	63	35.4	1	6	248	0.00	29.963 
05:15	47.4	47.4	47.4	63	35.4	2	3	248	0.00	29.965 
05:20	47.4	47.4	47.4	63	35.4	1	4	248	0.00	29.964 
05:25	47.4	47.4	47.4	64	35.8	1	3	248	0.00	29.965 
05:30	47.3	47.3	47.3	64	35.7	1	3	248	0.00	29.964 
05:35	47.4	47.4	47.4	64	35.8	1	4	248	0.00	29.966 
05:40	47.4	47.4	47.4	64	35.8	1	4	248	0.00	29.965 
05:45	47.3	47.3	47.3	65	36.1	1	3	248	0.00	29.965 
05:50	47.3	47.3	47.3	65	36.1	1	3	248	0.00	29.967 
05:55	47.3	47.3	47.3	65	36.1	1	3	248	0.00	29.968 
06:00	47.4	47.4	47.4	66	36.6	1	3	248	0.00	29.969 
06:05	47.4	47.4	47.4	66	36.6	1	3	248	0.00	29.972 
06:10	47.6	47.6	47.6	66	36.8	1	2	225	0.00	29.970 
06:15	47.6	47.6	47.6	66	36.8	1	3	225	0.00	29.971 
06:20	47.7	47.7	47.7	66	36.9	0	3	248	0.00	29.968 
06:25	47.7	47.7	47.7	66	36.9	0	2	248	0.00	29.966 
06:30	47.6	47.6	47.6	67	37.2	0	2	248	0.00	29.966 
06:35	47.6	47.6	47.6	67	37.2	0	2	248	0.00	29.969 
06:40	47.6	47.6	47.6	67	37.2	1	3	248	0.00	29.966 
06:45	47.6	47.6	47.6	67	37.2	1	3	225	0.00	29.967 
06:50	47.6	47.6	47.6	67	37.2	2	4	248	0.00	29.967 
06:55	47.7	47.7	47.7	67	37.3	1	4	225	0.00	29.966 
07:00	47.7	47.7	47.7	67	37.3	2	5	248	0.00	29.966 
07:05	47.7	47.7	47.7	67	37.3	1	7	248	0.00	29.969 
07:10	47.7	47.7	47.7	68	37.7	1	5	248	0.00	29.970 
07:15	47.9	47.9	47.9	68	37.9	2	3	248	0.00	29.972 
07:20	48.0	48.0	48.0	68	37.9	1	4	248	0.00	29.974 
07:25	48.0	48.0	48.0	68	37.9	1	3	248	0.00	29.973 
07:30	48.0	48.0	48.0	69	38.3	1	3	248	0.00	29.974 
07:35	48.0	48.0	48.0	69	38.3	1	3	248	0.00	29.974 
07:40	48.2	48.2	48.2	69	38.5	1	3	248	0.00	29.972 
07:45	48.2	48.2	48.2	69	38.5	1	2	248	0.00	29.976 
07:50	48.3	48.3	48.3	69	38.6	0	2	248	0.00	29.971 
07:55	48.5	48.5	48.5	69	38.8	1	3	248	0.00	29.972 
08:00	48.6	48.6	48.6	69	38.9	1	4	248	0.00	29.974 
08:05	49.1	49.1	49.1	69	39.4	2	4	248	0.00	29.978 
08:10	49.5	49.5	49.5	69	39.8	1	3	248	0.00	29.981 
08:15	50.1	50.1	50.1	68	40.0	1	4	248	0.00	29.981 
08:20	51.0	51.0	51.0	67	40.4	2	5	248	0.00	29.979 
08:25	51.9	51.9	51.9	67	41.3	2	7	248	0.00	29.980 
08:30	52.9	52.9	52.9	66	41.9	3	7	248	0.00	29.978 
08:35	53.8	53.8	53.8	64	41.9	3	9	248	0.00	29.979 
08:40	54.4	54.4	54.4	63	42.1	3	6	248	0.00	29.979 
08:45	54.7	54.7	54.7	62	41.9	3	9	248	0.00	29.978 
08:50	54.7	54.7	54.7	62	41.9	4	9	248	0.00	29.979 
08:55	54.8	54.8	54.8	63	42.4	4	7	248	0.00	29.980 
09:00	55.0	55.0	55.0	63	42.6	2	7	248	0.00	29.978 
09:05	55.3	55.3	55.3	63	42.9	3	6	248	0.00	29.980 
09:10	55.7	55.7	55.7	62	42.9	4	11	248	0.00	29.978 
09:15	56.0	56.0	56.0	62	43.2	3	11	248	0.00	29.977 
09:20	56.3	56.3	56.3	62	43.4	3	7	248	0.00	29.977 
09:25	57.0	57.0	57.0	62	44.1	2	5	248	0.00	29.975 
09:30	57.6	57.6	57.6	61	44.2	3	9	248	0.00	29.974 
09:35	58.3	58.3	58.3	61	44.9	4	9	248	0.00	29.972 
09:40	58.6	58.6	58.6	60	44.8	3	5	248	0.00	29.970 
09:45	58.9	58.9	58.9	61	45.5	3	7	248	0.00	29.969 
09:50	59.2	59.2	59.2	60	45.3	4	10	248	0.00	29.971 
09:55	59.3	59.3	59.3	60	45.4	3	6	248	0.00	29.968 
10:00	59.6	59.6	59.6	60	45.7	4	10	248	0.00	29.963 
10:05	59.9	59.9	59.9	60	46.0	3	10	248	0.00	29.964 
10:10	60.5	60.5	60.5	59	46.1	3	9	248	0.00	29.960 
10:15	61.0	61.0	61.0	58	46.1	4	7	248	0.00	29.959 
10:20	61.3	61.3	61.3	58	46.4	3	12	270	0.00	29.959 
10:25	61.8	61.8	61.8	58	46.9	3	7	248	0.00	29.958 
10:30	62.4	62.4	62.4	58	47.4	4	10	248	0.00	29.957 
10:35	62.9	62.9	62.9	57	47.4	4	9	248	0.00	29.955 
10:40	63.4	63.4	63.4	57	47.9	4	11	248	0.00	29.955 
10:45	64.0	64.0	64.0	57	48.5	4	10	248	0.00	29.954 
10:50	64.7	64.7	64.7	56	48.6	4	10	248	0.00	29.949 
10:55	64.7	64.7	64.7	56	48.6	5	12	248	0.00	29.950 
11:00	64.8	64.8	64.8	56	48.7	5	11	270	0.00	29.951 
11:05	65.3	65.3	65.3	55	48.7	4	14	248	0.00	29.947 
11:10	65.6	65.6	65.6	55	49.0	5	14	248	0.00	29.942 
11:15	66.1	66.1	66.1	55	49.5	4	10	248	0.00	29.939 
11:20	66.6	66.6	66.6	54	49.4	4	9	248	0.00	29.938 
11:25	67.1	67.1	67.1	54	49.9	4	9	248	0.00	29.938 
11:30	67.4	67.4	67.4	54	50.2	4	14	270	0.00	29.937 
11:35	67.1	67.1	67.1	54	49.9	6	12	270	0.00	29.936 
11:40	67.1	67.1	67.1	56	50.9	5	12	270	0.00	29.935 
11:45	67.3	67.3	67.3	54	50.1	5	13	248	0.00	29.936 
11:50	67.3	67.3	67.3	54	50.1	4	7	248	0.00	29.936 
11:55	67.4	67.4	67.4	55	50.7	5	10	248	0.00	29.937 
12:00	67.4	67.4	67.4	55	50.7	5	10	248	0.00	29.936 
12:05	67.8	67.8	67.8	55	51.0	4	6	270	0.00	29.931 
12:10	67.9	67.9	67.9	56	51.6	4	9	248	0.00	29.929 
12:15	68.8	68.8	68.8	54	51.5	4	11	248	0.00	29.922 
12:20	69.1	69.1	69.1	54	51.7	6	12	248	0.00	29.921 
12:25	69.4	69.4	69.4	53	51.5	6	11	248	0.00	29.920 
12:30	69.9	69.9	69.9	52	51.5	6	10	248	0.00	29.917 
12:35	70.6	70.6	70.6	51	51.6	5	12	270	0.00	29.915 
12:40	71.1	71.1	71.1	50	51.5	8	17	270	0.00	29.912 
12:45	71.8	71.8	71.8	49	51.6	6	15	270	0.00	29.913 
12:50	71.1	71.1	71.1	51	52.0	9	18	270	0.00	29.915 
12:55	71.3	71.3	71.3	49	51.1	6	14	270	0.00	29.913 
13:00	71.5	71.5	71.5	50	51.9	6	12	270	0.00	29.905 
13:05	71.8	71.8	71.8	49	51.6	5	12	270	0.00	29.906 
13:10	71.6	71.6	71.6	50	52.0	6	16	270	0.00	29.904 
13:15	71.5	71.5	71.5	50	51.9	6	15	270	0.00	29.902 
13:20	71.5	71.5	71.5	51	52.4	10	22	248	0.00	29.899 
13:25	72.0	72.0	72.0	51	52.9	6	15	270	0.00	29.897 
13:30	72.3	72.3	72.3	50	52.6	8	18	270	0.00	29.894 
13:35	72.5	72.5	72.5	50	52.8	7	15	248	0.00	29.893 
13:40	72.1	72.1	72.1	49	51.9	8	16	270	0.00	29.889 
13:45	72.5	72.5	72.5	50	52.8	6	14	270	0.00	29.886 
13:50	72.7	72.7	72.7	48	51.9	7	14	270	0.00	29.885 
13:55	72.8	72.8	72.8	51	53.6	6	14	270	0.00	29.884 
14:00	72.8	72.8	72.8	50	53.1	6	17	270	0.00	29.883 
14:05	73.0	73.0	73.0	48	52.1	8	19	270	0.00	29.881 
14:10	72.8	72.8	72.8	47	51.4	8	21	270	0.00	29.878 
14:15	72.7	72.7	72.7	47	51.3	8	18	270	0.00	29.874 
14:20	72.5	72.5	72.5	48	51.7	8	19	270	0.00	29.872 
14:25	72.8	72.8	72.8	49	52.5	6	12	270	0.00	29.872 
14:30	72.7	72.7	72.7	49	52.4	7	16	270	0.00	29.873 
14:35	73.0	73.0	73.0	48	52.1	6	15	270	0.00	29.870 
14:40	73.2	73.2	73.2	49	52.9	5	19	270	0.00	29.869 
14:45	73.3	73.3	73.3	48	52.4	7	16	248	0.00	29.869 
14:50	73.7	73.7	73.7	48	52.8	7	15	270	0.00	29.869 
14:55	73.9	73.9	73.9	47	52.4	5	13	270	0.00	29.870 
15:00	73.9	73.9	73.9	46	51.8	7	17	270	0.00	29.869 
15:05	73.7	73.7	73.7	46	51.6	8	15	270	0.00	29.867 
15:10	73.9	73.9	73.9	47	52.4	6	11	270	0.00	29.867 
15:15	74.2	74.2	74.2	46	52.1	5	14	270	0.00	29.867 
15:20	74.7	74.7	74.7	45	51.9	5	10	270	0.00	29.867 
15:25	74.7	74.7	74.7	44	51.3	7	17	270	0.00	29.867 
15:30	74.4	74.4	74.4	44	51.0	7	15	270	0.00	29.867 
15:35	74.2	74.2	74.2	45	51.5	8	17	270	0.00	29.866 
15:40	74.4	74.4	74.4	45	51.7	8	16	270	0.00	29.866 
15:45	74.4	74.4	74.4	45	51.7	8	20	270	0.00	29.866 
15:50	74.4	74.4	74.4	46	52.3	7	19	270	0.00	29.867 
15:55	74.4	74.4	74.4	45	51.7	6	14	292	0.00	29.867 
16:00	74.6	74.6	74.6	44	51.2	6	15	270	0.00	29.868 
16:05	74.6	74.6	74.6	45	51.8	6	13	270	0.00	29.868 
16:10	74.4	74.4	74.4	46	52.3	5	16	270	0.00	29.871 
16:15	74.0	74.0	74.0	45	51.3	7	16	270	0.00	29.870 
16:20	74.0	74.0	74.0	46	51.9	4	11	270	0.00	29.870 
16:25	74.0	74.0	74.0	46	51.9	5	16	270	0.00	29.869 
16:30	73.9	73.9	73.9	45	51.2	7	17	270	0.00	29.871 
16:35	73.9	73.9	73.9	45	51.2	6	13	270	0.00	29.871 
16:40	73.9	73.9	73.9	44	50.6	7	16	270	0.00	29.870 
16:45	74.0	74.0	74.0	44	50.7	4	14	248	0.00	29.869 
16:50	73.9	73.9	73.9	44	50.6	4	12	270	0.00	29.869 
16:55	73.7	73.7	73.7	44	50.4	4	14	270	0.00	29.868 
17:00	73.5	73.5	73.5	45	50.8	5	11	270	0.00	29.868 
17:05	73.5	73.5	73.5	44	50.2	4	10	248	0.00	29.868 
17:10	73.3	73.3	73.3	45	50.7	4	9	270	0.00	29.868 
17:15	73.2	73.2	73.2	46	51.2	2	5	270	0.00	29.867 
17:20	73.0	73.0	73.0	45	50.4	3	6	248	0.00	29.867 
17:25	73.2	73.2	73.2	44	50.0	4	9	248	0.00	29.866 
17:30	73.2	73.2	73.2	44	50.0	4	11	248	0.00	29.866 
17:35	73.0	73.0	73.0	45	50.4	4	9	248	0.00	29.866 
17:40	73.0	73.0	73.0	45	50.4	3	6	248	0.00	29.867 
17:45	72.8	72.8	72.8	44	49.6	3	10	248	0.00	29.865 
17:50	72.7	72.7	72.7	44	49.5	3	9	248	0.00	29.865 
17:55	72.7	72.7	72.7	45	50.1	3	7	248	0.00	29.866 
18:00	72.3	72.3	72.3	45	49.8	2	6	248	0.00	29.867 
18:05	72.1	72.1	72.1	45	49.6	2	5	248	0.00	29.867 
18:10	72.0	72.0	72.0	46	50.1	2	5	248	0.00	29.868 
18:15	71.6	71.6	71.6	46	49.7	2	6	225	0.00	29.867 
18:20	71.3	71.3	71.3	47	50.0	1	6	248	0.00	29.868 
18:25	70.9	70.9	70.9	47	49.7	1	2	225	0.00	29.869 
18:30	70.4	70.4	70.4	48	49.8	1	3	225	0.00	29.869 
18:35	70.1	70.1	70.1	49	50.0	0	1	225	0.00	29.870 
18:40	69.3	69.3	69.3	50	49.8	0	1	225	0.00	29.872 
18:45	68.6	68.6	68.6	51	49.7	0	1	225	0.00	29.871 
18:50	67.8	67.8	67.8	53	50.0	0	1	225	0.00	29.871 
18:55	67.1	67.1	67.1	54	49.9	0	2	225	0.00	29.872 
19:00	66.9	66.9	66.9	54	49.7	0	2	225	0.00	29.872 
19:05	66.8	66.8	66.8	54	49.6	0	2	225	0.00	29.871 
19:10	66.4	66.4	66.4	55	49.7	0	0	---	0.00	29.871 
19:15	65.8	65.8	65.8	56	49.7	0	1	225	0.00	29.873 
19:20	65.3	65.3	65.3	57	49.7	0	1	225	0.00	29.873 
19:25	64.8	64.8	64.8	58	49.7	0	0	---	0.00	29.872 
19:30	64.3	64.3	64.3	59	49.7	0	0	---	0.00	29.872 
19:35	64.0	64.0	64.0	60	49.8	0	0	---	0.00	29.874 
19:40	63.9	63.9	63.9	60	49.7	0	1	225	0.00	29.873 
19:45	63.5	63.5	63.5	61	49.8	0	1	225	0.00	29.874 
19:50	63.2	63.2	63.2	62	50.0	0	0	---	0.00	29.874 
19:55	63.2	63.2	63.2	62	50.0	0	1	225	0.00	29.874 
20:00	63.2	63.2	63.2	62	50.0	0	1	225	0.00	29.873 
20:05	63.2	63.2	63.2	62	50.0	0	1	225	0.00	29.869 
20:10	63.1	63.1	63.1	62	49.9	0	0	---	0.00	29.869 
20:15	62.7	62.7	62.7	63	49.9	0	0	---	0.00	29.868 
20:20	62.6	62.6	62.6	64	50.2	0	1	225	0.00	29.868 
20:25	62.6	62.6	62.6	64	50.2	0	0	---	0.00	29.868 
20:30	62.4	62.4	62.4	64	50.1	0	1	225	0.00	29.869 
20:35	62.3	62.3	62.3	64	50.0	0	1	225	0.00	29.869 
20:40	62.1	62.1	62.1	64	49.8	0	0	---	0.00	29.867 
20:45	62.0	62.0	62.0	64	49.7	0	1	225	0.00	29.866 
20:50	62.0	62.0	62.0	64	49.7	0	1	225	0.00	29.866 
20:55	62.1	62.1	62.1	63	49.3	0	1	225	0.00	29.868 
21:00	62.1	62.1	62.1	63	49.3	0	3	225	0.00	29.869 
21:05	62.6	62.6	62.6	62	49.4	0	3	225	0.00	29.866 
21:10	62.7	62.7	62.7	62	49.5	0	2	225	0.00	29.865 
21:15	63.5	63.5	63.5	61	49.8	1	5	225	0.00	29.866 
21:20	64.5	64.5	64.5	59	49.8	2	4	248	0.00	29.864 
21:25	65.2	65.2	65.2	58	50.0	1	6	225	0.00	29.864 
21:30	66.0	66.0	66.0	58	50.8	3	9	248	0.00	29.863 
21:35	66.3	66.3	66.3	57	50.6	2	7	248	0.00	29.863 
21:40	66.3	66.3	66.3	58	51.1	1	4	225	0.00	29.864 
21:45	66.1	66.1	66.1	58	50.9	2	7	248	0.00	29.863 
21:50	66.1	66.1	66.1	58	50.9	2	6	248	0.00	29.862 
21:55	65.8	65.8	65.8	58	50.6	1	4	248	0.00	29.862 
22:00	65.8	65.8	65.8	59	51.1	2	5	248	0.00	29.862 
22:05	65.8	65.8	65.8	60	51.5	2	6	248	0.00	29.858 
22:10	65.6	65.6	65.6	61	51.8	3	6	248	0.00	29.856 
22:15	65.6	65.6	65.6	61	51.8	3	6	248	0.00	29.855 
22:20	65.5	65.5	65.5	62	52.1	3	9	248	0.00	29.856 
22:25	65.3	65.3	65.3	62	51.9	2	6	248	0.00	29.855 
22:30	65.2	65.2	65.2	63	52.3	2	6	248	0.00	29.855 
22:35	65.0	65.0	65.0	64	52.5	2	5	248	0.00	29.855 
22:40	64.8	64.8	64.8	64	52.3	3	10	248	0.00	29.855 
22:45	64.8	64.8	64.8	65	52.8	3	7	248	0.00	29.857 
22:50	64.5	64.5	64.5	65	52.5	2	7	248	0.00	29.857 
22:55	64.3	64.3	64.3	66	52.7	3	7	248	0.00	29.855 
23:00	64.2	64.2	64.2	67	53.0	2	9	248	0.00	29.854 
23:05	64.0	64.0	64.0	67	52.8	2	5	248	0.00	29.851 
23:10	63.9	63.9	63.9	68	53.1	3	6	248	0.00	29.851 
23:15	63.7	63.7	63.7	69	53.3	3	10	248	0.00	29.851 
23:20	63.9	63.9	63.9	67	52.7	4	9	248	0.00	29.850 
23:25	64.0	64.0	64.0	69	53.6	4	10	270	0.00	29.849 
23:30	64.2	64.2	64.2	69	53.8	4	11	248	0.00	29.853 
23:35	64.2	64.2	64.2	69	53.8	4	7	248	0.00	29.851 
23:40	64.2	64.2	64.2	69	53.8	5	12	248	0.00	29.849 
23:45	64.2	64.2	64.2	69	53.8	4	12	248	0.00	29.848 
23:50	64.2	64.2	64.2	70	54.2	4	7	248	0.00	29.846 
23:55	64.0	64.0	64.0	70	54.0	4	9	248	0.00	29.845 

CoCoRaHS
IN-AL-39
A2 Web Hosting
Creative Commons License
GoDaddy
Look for:

loaded 2017-10-18 21:50:45 • last modified 2010-11-18 10:43:29
Privacy PolicyDisclaimer
• wx.awcolley.com is powered by PmWiki v.2002016 •
• all content (unless otherwise noted) © 2017 A W Colley